Etusivu
METAR-TAF:

METAR-TAF

Lentoasemat :

Forest City, Iowa, Yhdysvallat

Leveyspiiri: 43-14-05N, Pituuspiiri: 093-37-27W, korkeus merenpinnasta: 375 m

Tämänhetkinen sää

Tämä raportti tehtiin 19 minuuttia sitten, kello 20.35 UTC
Tuuli 8 kn luoteesta
Lämpötila -2°C
Kosteus 69%
Ilmanpaine 1024 hPa
Näkyvyys: 16.1 km
selkeää

METAR: KFXY 262035Z AUTO 32008KT 10SM CLR M02/M07 A3025 RMK AO2

Aika: 14:54 (20:54 UTC)


TAF: puuttuu

Säähavainnot ja -ennusteet yli 4000 lentoasemalta (METAR- ja TAF-raportit).

Käytössä olevat sääasemat on merkitty karttaan keltaisilla ja punaisilla pisteillä.

Aseta hiiri pisteen päälle nähdäksesi sääaseman nimen.

Klikkaa sitten nähdäksesi säähavainnot ja -ennusteet.

Kartan vaihtaminen: klikkaa mustalla rastilla varustettuja vihreitä pisteitä, niin voit zoomata sisään; viivalla varustettua vihreää pistettä, niin voit zoomata ulos tai vihreitä nuolia, niin pääset viereisille kartoille.


METAR-TAF: